createdAt,value
2023-06-27T00:00:29.247Z,94.21
2023-06-27T00:02:57.896Z,94.31
2023-06-27T00:05:26.339Z,94.18
2023-06-27T00:07:54.918Z,94.00
2023-06-27T00:10:24.693Z,94.02
2023-06-27T00:12:54.052Z,94.15
2023-06-27T00:15:24.599Z,93.91
2023-06-27T00:17:55.030Z,94.33
2023-06-27T00:20:24.861Z,94.82
2023-06-27T00:22:54.498Z,94.68
2023-06-27T00:25:26.395Z,94.78
2023-06-27T00:27:55.212Z,94.85
2023-06-27T00:30:24.693Z,95.20
2023-06-27T00:32:55.054Z,95.55
2023-06-27T00:35:24.551Z,95.01
2023-06-27T00:37:53.025Z,94.68
2023-06-27T00:40:21.614Z,95.22
2023-06-27T00:42:53.381Z,94.90
2023-06-27T00:45:23.360Z,94.68
2023-06-27T00:47:57.946Z,94.98
2023-06-27T00:50:28.455Z,95.39
2023-06-27T00:52:58.928Z,94.77
2023-06-27T00:55:27.287Z,94.73
2023-06-27T00:57:57.378Z,95.46
2023-06-27T01:00:25.597Z,94.83
2023-06-27T01:02:54.469Z,94.92
2023-06-27T01:05:22.999Z,95.29
2023-06-27T01:07:58.155Z,95.16
2023-06-27T01:10:33.433Z,95.43
2023-06-27T01:13:09.418Z,95.61
2023-06-27T01:15:38.836Z,96.11
2023-06-27T01:18:12.778Z,96.05
2023-06-27T01:20:45.160Z,95.92
2023-06-27T01:23:18.942Z,95.68
2023-06-27T01:25:48.755Z,96.08
2023-06-27T01:28:17.209Z,96.22
2023-06-27T01:30:48.256Z,96.37
2023-06-27T01:33:22.543Z,96.39
2023-06-27T01:36:01.011Z,96.60
2023-06-27T01:38:35.301Z,96.29
2023-06-27T01:41:08.700Z,96.04
2023-06-27T01:43:38.439Z,96.54
2023-06-27T01:46:07.326Z,96.26
2023-06-27T01:48:37.175Z,96.54
2023-06-27T01:51:09.876Z,96.69
2023-06-27T01:53:38.920Z,96.53
2023-06-27T01:56:10.695Z,96.07
2023-06-27T01:58:38.784Z,95.24
2023-06-27T02:01:10.086Z,95.40
2023-06-27T02:03:38.484Z,95.16
2023-06-27T02:06:07.511Z,95.24
2023-06-27T02:08:35.988Z,95.01
2023-06-27T02:11:09.290Z,94.88
2023-06-27T02:13:39.106Z,94.71
2023-06-27T02:16:08.595Z,95.07
2023-06-27T02:18:38.339Z,95.59
2023-06-27T02:21:08.259Z,95.25
2023-06-27T02:23:38.730Z,94.92
2023-06-27T02:26:09.954Z,95.17
2023-06-27T02:28:39.619Z,95.03
2023-06-27T02:31:08.923Z,94.72
2023-06-27T02:33:37.682Z,94.63
2023-06-27T02:36:06.927Z,94.28
2023-06-27T02:38:36.284Z,94.05
2023-06-27T02:41:04.901Z,94.03
2023-06-27T02:43:36.058Z,93.83
2023-06-27T02:46:08.306Z,93.54
2023-06-27T02:48:37.230Z,93.49
2023-06-27T02:51:05.976Z,93.58
2023-06-27T02:53:34.586Z,93.75
2023-06-27T02:56:06.457Z,93.48
2023-06-27T02:58:40.259Z,93.55
2023-06-27T03:01:10.102Z,93.64
2023-06-27T03:03:38.672Z,94.15
2023-06-27T03:06:10.372Z,94.35
2023-06-27T03:08:39.579Z,94.28
2023-06-27T03:11:08.114Z,94.44
2023-06-27T03:13:38.941Z,93.62
2023-06-27T03:16:07.834Z,93.58
2023-06-27T03:18:36.139Z,93.56
2023-06-27T03:21:05.288Z,93.32
2023-06-27T03:23:33.892Z,93.12
2023-06-27T03:26:02.376Z,93.56
2023-06-27T03:28:32.773Z,93.85
2023-06-27T03:31:03.672Z,93.94
2023-06-27T03:33:34.054Z,93.56
2023-06-27T03:36:04.116Z,93.30
2023-06-27T03:38:35.445Z,93.20
2023-06-27T03:41:04.194Z,93.70
2023-06-27T03:43:34.061Z,93.17
2023-06-27T03:46:05.995Z,92.98
2023-06-27T03:48:37.420Z,93.16
2023-06-27T03:51:05.634Z,93.00
2023-06-27T03:53:36.484Z,93.38
2023-06-27T03:56:09.502Z,93.47
2023-06-27T03:58:39.862Z,93.33
2023-06-27T04:01:13.111Z,92.76
2023-06-27T04:03:44.775Z,92.88
2023-06-27T04:06:14.850Z,92.59
2023-06-27T04:08:47.517Z,92.83
2023-06-27T04:11:16.370Z,92.33
2023-06-27T04:13:46.435Z,92.48
2023-06-27T04:16:16.833Z,92.47
2023-06-27T04:18:45.589Z,92.20
2023-06-27T04:21:15.228Z,91.77
2023-06-27T04:23:45.902Z,91.15
2023-06-27T04:26:16.490Z,91.61
2023-06-27T04:28:48.445Z,91.57
2023-06-27T04:31:22.997Z,91.80
2023-06-27T04:33:56.711Z,91.40
2023-06-27T04:36:26.789Z,92.29
2023-06-27T04:38:55.403Z,91.84
2023-06-27T04:41:30.912Z,91.82
2023-06-27T04:44:00.828Z,92.40
2023-06-27T04:46:34.284Z,92.40
2023-06-27T04:49:03.534Z,93.49
2023-06-27T04:51:32.251Z,92.01
2023-06-27T04:54:05.036Z,91.57
2023-06-27T04:56:35.663Z,92.10
2023-06-27T04:59:05.155Z,94.59
2023-06-27T05:01:36.290Z,97.11
2023-06-27T05:04:08.289Z,97.33
2023-06-27T05:06:38.898Z,97.48
2023-06-27T05:09:07.653Z,97.90
2023-06-27T05:11:38.426Z,96.58
2023-06-27T05:14:06.884Z,96.91
2023-06-27T05:16:40.626Z,96.62
2023-06-27T05:19:09.465Z,96.79
2023-06-27T05:21:40.423Z,97.63
2023-06-27T05:24:10.051Z,96.43
2023-06-27T05:26:38.926Z,96.05
2023-06-27T05:29:07.102Z,97.46
2023-06-27T05:31:36.950Z,96.41
2023-06-27T05:34:06.039Z,95.64
2023-06-27T05:36:37.179Z,95.79
2023-06-27T05:39:07.071Z,95.89
2023-06-27T05:41:35.587Z,96.08
2023-06-27T05:44:05.618Z,95.89
2023-06-27T05:46:38.966Z,93.11
2023-06-27T05:49:10.593Z,94.04
2023-06-27T05:51:40.526Z,93.63
2023-06-27T05:54:10.615Z,93.37
2023-06-27T05:56:40.627Z,92.91
2023-06-27T05:59:08.951Z,92.76
2023-06-27T06:01:41.957Z,92.78
2023-06-27T06:04:15.021Z,91.39
2023-06-27T06:06:43.362Z,91.85
2023-06-27T06:09:13.411Z,91.99
2023-06-27T06:11:43.478Z,92.09
2023-06-27T06:14:14.038Z,89.73
2023-06-27T06:16:44.380Z,89.78
2023-06-27T06:19:14.652Z,90.52
2023-06-27T06:21:46.487Z,88.20
2023-06-27T06:24:15.336Z,85.53
2023-06-27T06:26:45.738Z,84.09
2023-06-27T06:29:15.209Z,85.42
2023-06-27T06:31:45.738Z,85.08
2023-06-27T06:34:17.448Z,84.19
2023-06-27T06:36:46.653Z,82.85
2023-06-27T06:39:16.502Z,81.72
2023-06-27T06:41:45.555Z,80.45
2023-06-27T06:44:14.035Z,81.87
2023-06-27T06:46:43.069Z,81.39
2023-06-27T06:49:15.816Z,81.46
2023-06-27T06:51:49.749Z,82.50
2023-06-27T06:54:18.332Z,82.30
2023-06-27T06:56:49.550Z,83.02
2023-06-27T06:59:20.371Z,82.34
2023-06-27T07:01:48.680Z,82.85
2023-06-27T07:04:18.599Z,83.00
2023-06-27T07:06:48.692Z,83.18
2023-06-27T07:09:17.417Z,83.41
2023-06-27T07:11:46.139Z,83.46
2023-06-27T07:14:14.789Z,83.91
2023-06-27T07:16:43.679Z,83.33
2023-06-27T07:19:13.048Z,84.38
2023-06-27T07:21:44.226Z,84.35
2023-06-27T07:24:13.816Z,84.82
2023-06-27T07:26:43.133Z,84.79
2023-06-27T07:29:12.297Z,85.84
2023-06-27T07:31:40.836Z,86.74
2023-06-27T07:34:10.139Z,86.41
2023-06-27T07:36:40.249Z,86.88
2023-06-27T07:39:12.853Z,86.95
2023-06-27T07:41:41.962Z,86.43
2023-06-27T07:44:12.310Z,86.87
2023-06-27T07:46:43.894Z,86.47
2023-06-27T07:49:13.468Z,86.26
2023-06-27T07:51:43.422Z,84.86
2023-06-27T07:54:15.696Z,85.14
2023-06-27T07:56:45.268Z,84.93
2023-06-27T07:59:14.403Z,84.80
2023-06-27T08:01:45.801Z,84.61
2023-06-27T08:04:17.009Z,83.93
2023-06-27T08:06:46.143Z,83.89
2023-06-27T08:09:16.236Z,84.26
2023-06-27T08:11:45.404Z,83.25
2023-06-27T08:14:17.172Z,80.97
2023-06-27T08:16:46.414Z,81.96
2023-06-27T08:19:20.349Z,81.87
2023-06-27T08:21:48.994Z,80.23
2023-06-27T08:24:19.325Z,82.13
2023-06-27T08:26:50.786Z,81.72
2023-06-27T08:29:19.240Z,81.31
2023-06-27T08:31:51.028Z,81.41
2023-06-27T08:34:21.379Z,80.54
2023-06-27T08:36:50.887Z,80.88
2023-06-27T08:39:21.915Z,80.15
2023-06-27T08:41:52.650Z,79.95
2023-06-27T08:44:27.838Z,80.54
2023-06-27T08:47:06.669Z,80.93
2023-06-27T08:49:37.207Z,80.30
2023-06-27T08:52:09.605Z,81.51
2023-06-27T08:54:42.562Z,82.31
2023-06-27T08:57:15.670Z,82.94
2023-06-27T08:59:48.681Z,82.45
2023-06-27T09:02:18.679Z,83.06
2023-06-27T09:04:47.805Z,82.80
2023-06-27T09:07:16.578Z,83.97
2023-06-27T09:09:48.533Z,83.95
2023-06-27T09:12:18.365Z,83.57
2023-06-27T09:14:50.534Z,84.10
2023-06-27T09:17:20.811Z,84.02
2023-06-27T09:19:56.005Z,84.37
2023-06-27T09:22:26.130Z,83.27
2023-06-27T09:25:21.568Z,83.05
2023-06-27T09:27:52.561Z,82.79
2023-06-27T09:30:24.263Z,83.53
2023-06-27T09:32:58.037Z,83.10
2023-06-27T09:35:58.664Z,82.80
2023-06-27T09:40:52.087Z,81.12
2023-06-27T09:43:24.894Z,80.81
2023-06-27T09:46:00.054Z,79.82
2023-06-27T09:48:30.616Z,80.96
2023-06-27T09:51:09.387Z,80.64
2023-06-27T09:53:39.603Z,79.96
2023-06-27T09:56:11.140Z,80.38
2023-06-27T09:58:39.519Z,77.86
2023-06-27T10:01:09.657Z,76.94
2023-06-27T10:03:39.516Z,79.01
2023-06-27T10:08:58.272Z,75.78
2023-06-27T10:11:29.291Z,75.53
2023-06-27T10:13:58.021Z,75.25
2023-06-27T10:16:28.035Z,76.43
2023-06-27T10:18:57.332Z,74.26
2023-06-27T10:21:31.610Z,74.54
2023-06-27T10:24:03.447Z,75.19
2023-06-27T10:26:33.952Z,73.73
2023-06-27T10:29:14.764Z,74.43
2023-06-27T10:31:47.545Z,74.11
2023-06-27T10:34:21.675Z,75.72
2023-06-27T10:37:00.333Z,76.56
2023-06-27T10:39:31.791Z,77.79
2023-06-27T10:42:09.308Z,76.38
2023-06-27T10:45:03.649Z,76.64
2023-06-27T10:47:36.683Z,76.18
2023-06-27T10:50:20.113Z,76.00
2023-06-27T10:53:03.053Z,74.90
2023-06-27T10:55:39.424Z,76.19
2023-06-27T10:58:11.682Z,76.15
2023-06-27T11:00:44.432Z,75.53
2023-06-27T11:03:24.872Z,75.75
2023-06-27T11:06:00.702Z,75.75
2023-06-27T11:08:34.183Z,75.45
2023-06-27T11:11:11.922Z,76.07
2023-06-27T11:13:44.333Z,74.40
2023-06-27T11:16:15.351Z,75.63
2023-06-27T11:18:45.555Z,73.70
2023-06-27T11:21:16.573Z,72.61
2023-06-27T11:23:45.506Z,72.22
2023-06-27T11:26:15.527Z,72.37
2023-06-27T11:28:46.493Z,72.82
2023-06-27T11:31:16.001Z,72.41
2023-06-27T11:33:46.043Z,72.70
2023-06-27T11:36:17.053Z,72.11
2023-06-27T11:38:47.966Z,72.16
2023-06-27T11:41:21.209Z,71.38
2023-06-27T11:43:49.496Z,71.60
2023-06-27T11:46:20.897Z,71.66
2023-06-27T11:48:51.639Z,72.30
2023-06-27T11:51:20.156Z,71.90
2023-06-27T11:53:51.704Z,72.33
2023-06-27T11:56:23.719Z,72.54
2023-06-27T11:58:57.418Z,72.36
2023-06-27T12:01:27.350Z,73.42
2023-06-27T12:03:57.370Z,74.49
2023-06-27T12:06:27.216Z,75.48
2023-06-27T12:08:56.269Z,76.20
2023-06-27T12:11:29.264Z,76.71
2023-06-27T12:13:57.733Z,77.41
2023-06-27T12:16:31.258Z,77.17
2023-06-27T12:19:09.742Z,78.14
2023-06-27T12:21:42.508Z,78.76
2023-06-27T12:24:12.933Z,79.10
2023-06-27T12:26:42.221Z,79.74
2023-06-27T12:29:14.258Z,80.77
2023-06-27T12:31:42.981Z,81.84
2023-06-27T12:34:14.577Z,82.79
2023-06-27T12:36:42.842Z,82.19
2023-06-27T12:39:12.081Z,82.66
2023-06-27T12:41:42.909Z,82.27
2023-06-27T12:44:12.218Z,82.34
2023-06-27T12:46:42.843Z,82.27
2023-06-27T12:49:13.550Z,82.82
2023-06-27T12:51:42.352Z,83.11
2023-06-27T12:54:12.410Z,82.37
2023-06-27T12:56:42.139Z,80.58
2023-06-27T12:59:11.698Z,81.12
2023-06-27T13:01:56.605Z,81.77
2023-06-27T13:04:29.376Z,81.83
2023-06-27T13:06:59.562Z,81.26
2023-06-27T13:09:28.197Z,81.91
2023-06-27T13:11:57.005Z,81.73
2023-06-27T13:14:25.658Z,81.68
2023-06-27T13:16:55.317Z,81.83
2023-06-27T13:19:23.780Z,81.79
2023-06-27T13:21:54.004Z,82.31
2023-06-27T13:24:22.490Z,81.87
2023-06-27T13:26:51.245Z,81.73
2023-06-27T13:29:19.721Z,82.03
2023-06-27T13:31:49.384Z,82.34
2023-06-27T13:34:18.302Z,82.24
2023-06-27T13:36:47.644Z,82.29
2023-06-27T13:39:18.108Z,81.62
2023-06-27T13:41:46.753Z,80.58
2023-06-27T13:44:15.483Z,80.38
2023-06-27T13:46:44.677Z,79.15
2023-06-27T13:49:13.254Z,78.66
2023-06-27T13:51:41.791Z,78.69
2023-06-27T13:54:10.189Z,77.71
2023-06-27T13:56:43.021Z,78.60
2023-06-27T13:59:12.036Z,76.37
2023-06-27T14:01:42.024Z,75.94
2023-06-27T14:04:12.310Z,76.13
2023-06-27T14:06:41.124Z,76.82
2023-06-27T14:09:10.218Z,77.16
2023-06-27T14:11:40.038Z,77.68
2023-06-27T14:14:13.419Z,76.77
2023-06-27T14:16:42.188Z,76.16
2023-06-27T14:19:10.920Z,77.18
2023-06-27T14:21:39.913Z,76.30
2023-06-27T14:24:10.782Z,77.25
2023-06-27T14:26:42.870Z,72.93
2023-06-27T14:29:11.626Z,73.69
2023-06-27T14:31:41.425Z,72.37
2023-06-27T14:34:11.006Z,72.58
2023-06-27T14:36:42.791Z,71.99
2023-06-27T14:39:14.685Z,72.40
2023-06-27T14:41:50.795Z,73.00
2023-06-27T14:44:21.696Z,74.11
2023-06-27T14:46:50.567Z,73.48
2023-06-27T14:49:18.883Z,73.91
2023-06-27T14:51:53.546Z,74.40
2023-06-27T14:54:25.458Z,74.36
2023-06-27T14:56:56.554Z,74.47
2023-06-27T14:59:29.482Z,74.39
2023-06-27T15:01:58.666Z,74.89
2023-06-27T15:04:28.689Z,74.60
2023-06-27T15:06:59.847Z,74.71
2023-06-27T15:09:31.519Z,74.24
2023-06-27T15:12:03.180Z,74.72
2023-06-27T15:14:33.115Z,74.19
2023-06-27T15:17:03.468Z,74.50
2023-06-27T15:19:32.913Z,73.63
2023-06-27T15:22:04.876Z,73.66
2023-06-27T15:24:35.901Z,73.34
2023-06-27T15:27:06.528Z,73.64
2023-06-27T15:29:35.268Z,73.60
2023-06-27T15:32:03.844Z,73.87
2023-06-27T15:34:33.865Z,73.59
2023-06-27T15:37:03.052Z,73.60
2023-06-27T15:39:32.053Z,73.34
2023-06-27T15:42:01.137Z,73.54
2023-06-27T15:44:32.474Z,72.76
2023-06-27T15:47:01.977Z,72.39
2023-06-27T15:49:30.770Z,73.09
2023-06-27T15:52:01.576Z,73.44
2023-06-27T15:54:30.702Z,73.95
2023-06-27T15:57:03.392Z,73.97
2023-06-27T15:59:34.637Z,73.52
2023-06-27T16:02:03.765Z,73.91
2023-06-27T16:04:34.607Z,74.06
2023-06-27T16:07:03.230Z,74.54
2023-06-27T16:09:33.772Z,74.88
2023-06-27T16:12:07.935Z,75.23
2023-06-27T16:14:40.880Z,74.80
2023-06-27T16:17:10.452Z,75.31
2023-06-27T16:19:40.149Z,74.69
2023-06-27T16:22:08.787Z,74.72
2023-06-27T16:24:37.711Z,75.32
2023-06-27T16:27:07.234Z,74.87
2023-06-27T16:29:37.895Z,74.74
2023-06-27T16:32:13.159Z,74.74
2023-06-27T16:34:42.617Z,75.29
2023-06-27T16:37:11.240Z,74.65
2023-06-27T16:39:39.881Z,74.38
2023-06-27T16:42:10.654Z,74.43
2023-06-27T16:44:44.215Z,70.37
2023-06-27T16:47:15.715Z,67.99
2023-06-27T16:49:44.255Z,68.01
2023-06-27T16:52:13.014Z,66.94
2023-06-27T16:54:41.590Z,65.93
2023-06-27T16:57:11.214Z,66.76
2023-06-27T16:59:39.727Z,66.45
2023-06-27T17:02:09.226Z,66.61
2023-06-27T17:04:39.820Z,66.83
2023-06-27T17:07:08.456Z,67.58
2023-06-27T17:09:39.875Z,68.02
2023-06-27T17:12:09.143Z,67.42
2023-06-27T17:14:39.733Z,67.19
2023-06-27T17:17:08.365Z,67.37
2023-06-27T17:19:40.594Z,67.16
2023-06-27T17:22:11.853Z,67.61
2023-06-27T17:24:41.279Z,67.92
2023-06-27T17:27:09.892Z,68.43
2023-06-27T17:29:38.654Z,68.15
2023-06-27T17:32:08.086Z,68.12
2023-06-27T17:34:37.221Z,68.20
2023-06-27T17:37:07.422Z,68.03
2023-06-27T17:39:35.756Z,67.99
2023-06-27T17:42:04.486Z,68.69
2023-06-27T17:44:33.119Z,68.65
2023-06-27T17:47:01.731Z,68.52
2023-06-27T17:49:30.294Z,68.51
2023-06-27T17:51:59.251Z,68.60
2023-06-27T17:54:29.158Z,69.31
2023-06-27T17:56:58.735Z,69.21
2023-06-27T17:59:27.578Z,68.96
2023-06-27T18:01:59.767Z,69.83
2023-06-27T18:04:31.890Z,68.77
2023-06-27T18:07:00.807Z,69.25
2023-06-27T18:09:31.093Z,68.18
2023-06-27T18:11:59.810Z,68.88
2023-06-27T18:14:30.093Z,68.59
2023-06-27T18:16:59.356Z,68.26
2023-06-27T18:19:28.051Z,68.65
2023-06-27T18:21:57.240Z,68.74
2023-06-27T18:24:27.655Z,69.15
2023-06-27T18:26:59.183Z,69.06
2023-06-27T18:29:28.512Z,69.48
2023-06-27T18:31:57.319Z,69.52
2023-06-27T18:34:26.030Z,70.24
2023-06-27T18:36:55.157Z,69.97
2023-06-27T18:39:24.784Z,70.55
2023-06-27T18:41:53.583Z,70.09
2023-06-27T18:44:24.005Z,70.64
2023-06-27T18:46:52.625Z,70.49
2023-06-27T18:49:21.583Z,70.76
2023-06-27T18:51:50.602Z,70.71
2023-06-27T18:54:20.551Z,70.95
2023-06-27T18:56:50.281Z,70.53
2023-06-27T18:59:20.245Z,69.92
2023-06-27T19:01:51.103Z,70.62
2023-06-27T19:04:21.219Z,70.52
2023-06-27T19:06:51.550Z,70.47
2023-06-27T19:09:26.172Z,69.55
2023-06-27T19:11:55.081Z,69.91
2023-06-27T19:14:23.755Z,69.59
2023-06-27T19:16:55.279Z,69.68
2023-06-27T19:19:27.330Z,69.83
2023-06-27T19:22:01.928Z,70.27
2023-06-27T19:24:31.571Z,70.67
2023-06-27T19:27:01.197Z,70.74
2023-06-27T19:29:31.183Z,71.20
2023-06-27T19:32:02.179Z,71.50
2023-06-27T19:34:30.575Z,72.28
2023-06-27T19:36:59.289Z,71.07
2023-06-27T19:39:27.998Z,71.59
2023-06-27T19:41:56.703Z,72.55
2023-06-27T19:44:25.683Z,72.97
2023-06-27T19:46:54.050Z,72.32
2023-06-27T19:49:24.336Z,73.00
2023-06-27T19:51:52.613Z,73.26
2023-06-27T19:54:21.290Z,73.58
2023-06-27T19:56:49.607Z,73.97
2023-06-27T19:59:18.017Z,73.60
2023-06-27T20:01:47.056Z,73.85
2023-06-27T20:04:15.568Z,74.32
2023-06-27T20:06:46.234Z,74.40
2023-06-27T20:09:14.660Z,73.99
2023-06-27T20:11:42.866Z,74.65
2023-06-27T20:14:11.383Z,74.40
2023-06-27T20:16:41.987Z,73.99
2023-06-27T20:19:10.491Z,74.17
2023-06-27T20:21:40.195Z,74.35
2023-06-27T20:24:10.755Z,73.78
2023-06-27T20:26:39.182Z,74.28
2023-06-27T20:29:09.830Z,74.35
2023-06-27T20:31:39.070Z,73.77
2023-06-27T20:34:08.058Z,73.91
2023-06-27T20:36:37.594Z,74.06
2023-06-27T20:39:12.002Z,73.83
2023-06-27T20:41:43.920Z,74.85
2023-06-27T20:44:12.555Z,75.08
2023-06-27T20:46:41.042Z,75.94
2023-06-27T20:49:11.964Z,75.87
2023-06-27T20:51:41.010Z,76.97
2023-06-27T20:54:12.752Z,76.69
2023-06-27T20:56:41.639Z,76.06
2023-06-27T20:59:12.040Z,76.63
2023-06-27T21:01:41.304Z,75.84
2023-06-27T21:04:09.795Z,76.27
2023-06-27T21:06:38.898Z,76.72
2023-06-27T21:09:08.132Z,77.69
2023-06-27T21:11:39.581Z,77.60
2023-06-27T21:14:10.288Z,77.87
2023-06-27T21:16:39.306Z,76.92
2023-06-27T21:19:09.832Z,76.02
2023-06-27T21:21:38.365Z,76.94
2023-06-27T21:24:07.489Z,75.46
2023-06-27T21:26:37.570Z,74.77
2023-06-27T21:29:06.551Z,74.77
2023-06-27T21:31:35.233Z,75.43
2023-06-27T21:34:03.684Z,75.67
2023-06-27T21:36:34.549Z,76.40
2023-06-27T21:39:03.208Z,75.88
2023-06-27T21:41:31.830Z,77.32
2023-06-27T21:44:01.690Z,75.94
2023-06-27T21:46:32.692Z,76.61
2023-06-27T21:49:01.137Z,75.63
2023-06-27T21:51:30.278Z,77.08
2023-06-27T21:53:59.104Z,76.94
2023-06-27T21:56:28.988Z,77.40
2023-06-27T21:58:57.276Z,77.77
2023-06-27T22:01:30.834Z,78.05
2023-06-27T22:04:01.543Z,77.29
2023-06-27T22:06:42.163Z,78.61
2023-06-27T22:09:12.302Z,78.25
2023-06-27T22:11:41.308Z,78.83
2023-06-27T22:14:10.416Z,78.71
2023-06-27T22:16:42.828Z,79.72
2023-06-27T22:19:14.564Z,79.80
2023-06-27T22:21:42.829Z,80.97
2023-06-27T22:24:11.415Z,79.97
2023-06-27T22:26:41.817Z,79.82
2023-06-27T22:29:10.808Z,80.24
2023-06-27T22:31:42.075Z,80.25
2023-06-27T22:34:10.362Z,79.91
2023-06-27T22:36:41.670Z,79.58
2023-06-27T22:39:09.929Z,79.85
2023-06-27T22:41:40.539Z,79.53
2023-06-27T22:44:11.692Z,81.81
2023-06-27T22:46:44.295Z,83.16
2023-06-27T22:49:12.892Z,83.52
2023-06-27T22:51:42.296Z,83.30
2023-06-27T22:54:11.022Z,83.35
2023-06-27T22:56:39.439Z,81.91
2023-06-27T22:59:07.833Z,82.73
2023-06-27T23:01:36.466Z,81.66
2023-06-27T23:04:06.338Z,85.94
2023-06-27T23:06:34.945Z,85.00
2023-06-27T23:09:03.666Z,82.44
2023-06-27T23:11:32.680Z,85.51
2023-06-27T23:14:04.542Z,85.27
2023-06-27T23:16:35.163Z,86.93
2023-06-27T23:19:03.889Z,86.21
2023-06-27T23:21:35.689Z,86.69
2023-06-27T23:24:04.452Z,87.79
2023-06-27T23:26:36.323Z,86.76
2023-06-27T23:29:06.506Z,87.03
2023-06-27T23:31:39.455Z,85.06
2023-06-27T23:34:12.366Z,85.08
2023-06-27T23:36:44.331Z,83.37
2023-06-27T23:39:13.686Z,85.57
2023-06-27T23:41:42.243Z,87.53
2023-06-27T23:44:10.914Z,88.21
2023-06-27T23:46:40.585Z,88.11
2023-06-27T23:49:09.518Z,88.42
2023-06-27T23:51:37.677Z,85.50
2023-06-27T23:54:07.548Z,85.43
2023-06-27T23:56:38.874Z,86.30
2023-06-27T23:59:10.978Z,86.62
